createdAt,value
2023-01-08T00:00:05.582Z,-60.9
2023-01-08T00:01:05.600Z,-60.8
2023-01-08T00:02:05.607Z,-60.7
2023-01-08T00:03:05.828Z,-61
2023-01-08T00:04:05.621Z,-60.6
2023-01-08T00:05:05.596Z,-60.8
2023-01-08T00:06:05.595Z,-60.9
2023-01-08T00:07:05.655Z,-61.6
2023-01-08T00:08:05.579Z,-61.5
2023-01-08T00:09:05.584Z,-61.2
2023-01-08T00:10:05.583Z,-60.5
2023-01-08T00:11:05.597Z,-60.5
2023-01-08T00:12:05.587Z,-60.9
2023-01-08T00:13:05.608Z,-60.4
2023-01-08T00:14:05.587Z,-60.8
2023-01-08T00:15:05.608Z,-60.8
2023-01-08T00:16:05.702Z,-60.8
2023-01-08T00:17:05.589Z,-61.1
2023-01-08T00:18:06.936Z,-60.6
2023-01-08T00:19:05.610Z,-60.9
2023-01-08T00:20:05.591Z,-60.9
2023-01-08T00:21:05.590Z,-60.6
2023-01-08T00:22:05.612Z,-60.6
2023-01-08T00:23:05.588Z,-60.5
2023-01-08T00:24:05.601Z,-60.6
2023-01-08T00:25:05.595Z,-60.7
2023-01-08T00:26:05.603Z,-61.6
2023-01-08T00:27:05.594Z,-60.6
2023-01-08T00:28:05.588Z,-60.3
2023-01-08T00:29:05.672Z,-60.7
2023-01-08T00:30:05.596Z,-60.8
2023-01-08T00:31:06.263Z,-60.4
2023-01-08T00:32:05.592Z,-60.3
2023-01-08T00:33:05.598Z,-60.4
2023-01-08T00:34:06.876Z,-60.7
2023-01-08T00:35:05.593Z,-60.7
2023-01-08T00:36:05.662Z,-60.5
2023-01-08T00:37:05.598Z,-60.7
2023-01-08T00:38:05.602Z,-60.8
2023-01-08T00:39:05.616Z,-61
2023-01-08T00:40:05.593Z,-60.2
2023-01-08T00:41:05.602Z,-60.7
2023-01-08T00:42:05.592Z,-60.4
2023-01-08T00:43:05.600Z,-60.6
2023-01-08T00:44:05.607Z,-60.5
2023-01-08T00:45:05.592Z,-60.4
2023-01-08T00:46:05.677Z,-60.5
2023-01-08T00:47:05.595Z,-60.3
2023-01-08T00:48:05.620Z,-60.7
2023-01-08T00:49:05.587Z,-60.7
2023-01-08T00:50:05.591Z,-60.5
2023-01-08T00:51:05.590Z,-60.4
2023-01-08T00:52:07.656Z,-60.1
2023-01-08T00:53:05.590Z,-60.3
2023-01-08T00:54:05.604Z,-60.6
2023-01-08T00:55:05.589Z,-60.7
2023-01-08T00:56:05.610Z,-60.9
2023-01-08T00:57:05.606Z,-60.6
2023-01-08T00:58:05.596Z,-61.2
2023-01-08T00:59:05.590Z,-61.2
2023-01-08T01:00:05.586Z,-61
2023-01-08T01:02:05.724Z,-61
2023-01-08T01:03:05.612Z,-60.8
2023-01-08T01:04:05.646Z,-60.7
2023-01-08T01:05:05.727Z,-60.6
2023-01-08T01:06:05.596Z,-60.8
2023-01-08T01:07:05.605Z,-61
2023-01-08T01:08:05.590Z,-60.8
2023-01-08T01:09:05.597Z,-61
2023-01-08T01:10:05.603Z,-61.1
2023-01-08T01:11:05.600Z,-61.3
2023-01-08T01:12:05.600Z,-61.1
2023-01-08T01:13:05.605Z,-61.3
2023-01-08T01:14:05.618Z,-61.2
2023-01-08T01:15:05.586Z,-60.7
2023-01-08T01:16:05.600Z,-61.1
2023-01-08T01:17:05.651Z,-61.3
2023-01-08T01:18:05.586Z,-61.3
2023-01-08T01:19:05.604Z,-60.9
2023-01-08T01:20:05.630Z,-61
2023-01-08T01:21:05.612Z,-61.5
2023-01-08T01:22:05.595Z,-61.1
2023-01-08T01:23:05.600Z,-61.3
2023-01-08T01:24:05.600Z,-60.8
2023-01-08T01:25:05.595Z,-61.4
2023-01-08T01:26:05.601Z,-60.9
2023-01-08T01:27:05.609Z,-61.1
2023-01-08T01:28:05.598Z,-60.8
2023-01-08T01:29:05.608Z,-61.1
2023-01-08T01:30:05.632Z,-61
2023-01-08T01:32:05.617Z,-60.8
2023-01-08T01:33:05.603Z,-61.3
2023-01-08T01:34:05.594Z,-61.5
2023-01-08T01:35:05.608Z,-60.9
2023-01-08T01:37:05.593Z,-61.1
2023-01-08T01:38:05.600Z,-61.2
2023-01-08T01:39:05.608Z,-61.2
2023-01-08T01:40:05.594Z,-62.5
2023-01-08T01:41:05.602Z,-62.3
2023-01-08T01:42:05.607Z,-62.5
2023-01-08T01:43:05.600Z,-62.4
2023-01-08T01:44:05.594Z,-62.4
2023-01-08T01:45:05.610Z,-62.1
2023-01-08T01:46:05.633Z,-62.2
2023-01-08T01:47:05.601Z,-62.1
2023-01-08T01:48:05.611Z,-62.1
2023-01-08T01:49:05.622Z,-62.3
2023-01-08T01:50:05.614Z,-61.9
2023-01-08T01:51:05.604Z,-62
2023-01-08T01:52:05.611Z,-62.3
2023-01-08T01:53:05.604Z,-62.4
2023-01-08T01:54:05.638Z,-62.3
2023-01-08T01:55:05.605Z,-62.4
2023-01-08T01:56:05.611Z,-62
2023-01-08T01:57:05.601Z,-61.9
2023-01-08T01:58:05.601Z,-62.1
2023-01-08T01:59:05.606Z,-62.3
2023-01-08T02:00:05.607Z,-62.2
2023-01-08T02:01:05.663Z,-63.1
2023-01-08T02:02:05.765Z,-62.7
2023-01-08T02:03:05.605Z,-62.4
2023-01-08T02:04:05.703Z,-62.5
2023-01-08T02:05:05.603Z,-62.6
2023-01-08T02:06:05.809Z,-63
2023-01-08T02:07:05.717Z,-62.5
2023-01-08T02:08:05.609Z,-63.1
2023-01-08T02:09:05.604Z,-62.6
2023-01-08T02:10:05.601Z,-62.3
2023-01-08T02:11:05.609Z,-62.8
2023-01-08T02:12:05.599Z,-62
2023-01-08T02:13:05.606Z,-62.4
2023-01-08T02:14:05.599Z,-62.5
2023-01-08T02:15:05.606Z,-62.6
2023-01-08T02:16:05.612Z,-62.4
2023-01-08T02:17:05.656Z,-63.1
2023-01-08T02:18:05.605Z,-62.7
2023-01-08T02:20:05.603Z,-62.5
2023-01-08T02:21:05.605Z,-63.4
2023-01-08T02:22:05.600Z,-63.5
2023-01-08T02:23:05.601Z,-63.3
2023-01-08T02:24:05.630Z,-63.5
2023-01-08T02:25:05.626Z,-63.5
2023-01-08T02:26:05.642Z,-63.4
2023-01-08T02:27:05.622Z,-63.1
2023-01-08T02:28:05.602Z,-63.5
2023-01-08T02:29:05.611Z,-63.3
2023-01-08T02:30:05.604Z,-63.3
2023-01-08T02:32:05.613Z,-63.5
2023-01-08T02:33:05.605Z,-63.3
2023-01-08T02:35:05.612Z,-63.1
2023-01-08T02:36:05.607Z,-63.4
2023-01-08T02:37:05.618Z,-63.4
2023-01-08T02:38:05.724Z,-63.6
2023-01-08T02:39:05.611Z,-63.4
2023-01-08T02:40:05.603Z,-63.4
2023-01-08T02:41:05.609Z,-63.8
2023-01-08T02:42:05.626Z,-63.5
2023-01-08T02:43:05.622Z,-64.1
2023-01-08T02:44:05.608Z,-63.2
2023-01-08T02:45:05.643Z,-64.1
2023-01-08T02:46:05.687Z,-63.4
2023-01-08T02:47:05.618Z,-63.8
2023-01-08T02:48:05.613Z,-63.9
2023-01-08T02:49:05.605Z,-63.5
2023-01-08T02:50:05.631Z,-63.7
2023-01-08T02:51:05.613Z,-63.4
2023-01-08T02:52:05.609Z,-63.5
2023-01-08T02:53:05.615Z,-64.4
2023-01-08T02:54:05.602Z,-64.1
2023-01-08T02:55:05.609Z,-64.2
2023-01-08T02:56:05.613Z,-64.5
2023-01-08T02:57:05.606Z,-64.4
2023-01-08T02:58:05.628Z,-63.5
2023-01-08T02:59:05.630Z,-63.9
2023-01-08T03:00:05.607Z,-64.2
2023-01-08T03:01:05.612Z,-64.1
2023-01-08T03:02:05.720Z,-64.3
2023-01-08T03:03:05.612Z,-64
2023-01-08T03:04:05.652Z,-64.4
2023-01-08T03:05:05.633Z,-64.5
2023-01-08T03:06:05.617Z,-64.2
2023-01-08T03:07:05.653Z,-64.4
2023-01-08T03:08:05.617Z,-65
2023-01-08T03:09:05.726Z,-65.1
2023-01-08T03:10:05.613Z,-65
2023-01-08T03:11:05.634Z,-64.8
2023-01-08T03:12:05.611Z,-65.1
2023-01-08T03:13:05.627Z,-65
2023-01-08T03:14:05.616Z,-64.9
2023-01-08T03:15:05.621Z,-65.4
2023-01-08T03:16:05.620Z,-64.3
2023-01-08T03:17:05.775Z,-65
2023-01-08T03:18:05.675Z,-65.1
2023-01-08T03:19:06.421Z,-64.9
2023-01-08T03:20:05.617Z,-64.9
2023-01-08T03:21:05.615Z,-65
2023-01-08T03:22:05.611Z,-64.9
2023-01-08T03:23:05.618Z,-65.4
2023-01-08T03:24:05.611Z,-64.7
2023-01-08T03:25:05.620Z,-64.7
2023-01-08T03:26:05.611Z,-64.8
2023-01-08T03:27:05.616Z,-65
2023-01-08T03:28:05.628Z,-64.8
2023-01-08T03:29:05.613Z,-65.1
2023-01-08T03:30:05.647Z,-65.2
2023-01-08T03:31:05.667Z,-65
2023-01-08T03:32:05.632Z,-65.3
2023-01-08T03:33:05.619Z,-65.5
2023-01-08T03:34:05.625Z,-64.8
2023-01-08T03:35:05.622Z,-65
2023-01-08T03:36:05.616Z,-64.9
2023-01-08T03:37:05.610Z,-64.7
2023-01-08T03:38:05.625Z,-65.1
2023-01-08T03:39:05.613Z,-65.3
2023-01-08T03:40:05.749Z,-65
2023-01-08T03:41:05.628Z,-65.2
2023-01-08T03:42:05.626Z,-65.3
2023-01-08T03:43:05.616Z,-65.7
2023-01-08T03:44:05.620Z,-65.4
2023-01-08T03:45:05.654Z,-65.7
2023-01-08T03:46:05.724Z,-65.6
2023-01-08T03:47:05.648Z,-65.6
2023-01-08T03:48:05.659Z,-65.5
2023-01-08T03:49:05.636Z,-65.2
2023-01-08T03:50:05.634Z,-65.4
2023-01-08T03:51:05.615Z,-65.4
2023-01-08T03:52:05.640Z,-65.2
2023-01-08T03:53:05.629Z,-65.2
2023-01-08T03:54:05.632Z,-65.6
2023-01-08T03:55:05.635Z,-65
2023-01-08T03:56:05.615Z,-65.3
2023-01-08T03:57:05.627Z,-65.5
2023-01-08T03:58:05.622Z,-65.5
2023-01-08T03:59:05.621Z,-65.1
2023-01-08T04:00:05.659Z,-65.1
2023-01-08T04:01:05.623Z,-65.4
2023-01-08T04:02:05.737Z,-65
2023-01-08T04:03:05.921Z,-65
2023-01-08T04:04:05.720Z,-65.2
2023-01-08T04:05:05.616Z,-65.1
2023-01-08T04:06:05.629Z,-65.4
2023-01-08T04:07:05.628Z,-65.4
2023-01-08T04:08:05.628Z,-65.3
2023-01-08T04:09:05.694Z,-65.6
2023-01-08T04:10:05.641Z,-65.5
2023-01-08T04:11:05.739Z,-65.5
2023-01-08T04:12:05.634Z,-65.4
2023-01-08T04:13:05.653Z,-65.1
2023-01-08T04:14:05.622Z,-65.2
2023-01-08T04:15:05.626Z,-65
2023-01-08T04:16:05.706Z,-65.6
2023-01-08T04:17:05.623Z,-65.2
2023-01-08T04:18:05.639Z,-65.5
2023-01-08T04:19:05.619Z,-65.4
2023-01-08T04:20:05.630Z,-65.1
2023-01-08T04:21:05.630Z,-65.4
2023-01-08T04:22:05.625Z,-65.3
2023-01-08T04:23:05.625Z,-65.5
2023-01-08T04:24:05.615Z,-65.4
2023-01-08T04:25:05.621Z,-65.5
2023-01-08T04:26:05.645Z,-64.8
2023-01-08T04:27:05.635Z,-65.5
2023-01-08T04:28:05.627Z,-65.6
2023-01-08T04:29:05.623Z,-65.2
2023-01-08T04:30:05.624Z,-65.4
2023-01-08T04:31:05.764Z,-65.3
2023-01-08T04:32:05.626Z,-65.4
2023-01-08T04:33:05.629Z,-65.2
2023-01-08T04:34:05.634Z,-64.9
2023-01-08T04:35:05.631Z,-65.2
2023-01-08T04:36:05.650Z,-65.2
2023-01-08T04:37:05.627Z,-65.2
2023-01-08T04:38:05.630Z,-65.1
2023-01-08T04:39:05.628Z,-65
2023-01-08T04:40:05.623Z,-65.2
2023-01-08T04:41:05.628Z,-65.3
2023-01-08T04:42:05.745Z,-65.3
2023-01-08T04:43:05.654Z,-65.4
2023-01-08T04:44:05.627Z,-65.3
2023-01-08T04:45:05.628Z,-65.2
2023-01-08T04:46:05.690Z,-64.8
2023-01-08T04:47:05.630Z,-65.3
2023-01-08T04:48:05.625Z,-64.8
2023-01-08T04:49:05.625Z,-65.6
2023-01-08T04:50:05.628Z,-65.1
2023-01-08T04:51:05.622Z,-65
2023-01-08T04:52:05.628Z,-65.3
2023-01-08T04:53:05.632Z,-65.1
2023-01-08T04:54:05.623Z,-65
2023-01-08T04:55:05.626Z,-65.1
2023-01-08T04:56:05.627Z,-65.2
2023-01-08T04:57:05.681Z,-65
2023-01-08T04:58:05.640Z,-65.6
2023-01-08T04:59:05.640Z,-65.4
2023-01-08T05:00:05.631Z,-66
2023-01-08T05:01:05.730Z,-65.2
2023-01-08T05:02:05.822Z,-65.6
2023-01-08T05:03:05.693Z,-65.2
2023-01-08T05:04:05.626Z,-65.7
2023-01-08T05:05:05.631Z,-65.3
2023-01-08T05:06:05.627Z,-65.5
2023-01-08T05:07:05.622Z,-65.3
2023-01-08T05:08:05.655Z,-65.4
2023-01-08T05:09:05.629Z,-65
2023-01-08T05:10:05.653Z,-65.3
2023-01-08T05:11:05.642Z,-65.2
2023-01-08T05:12:05.639Z,-65.4
2023-01-08T05:13:05.773Z,-65.1
2023-01-08T05:14:05.660Z,-64.8
2023-01-08T05:15:05.653Z,-65
2023-01-08T05:16:05.720Z,-65.1
2023-01-08T05:17:05.632Z,-65.4
2023-01-08T05:18:05.669Z,-65.4
2023-01-08T05:19:05.630Z,-65.3
2023-01-08T05:20:05.633Z,-65.2
2023-01-08T05:21:05.634Z,-65.3
2023-01-08T05:22:05.701Z,-64.9
2023-01-08T05:23:05.643Z,-65.4
2023-01-08T05:24:05.639Z,-65.7
2023-01-08T05:25:05.640Z,-65.7
2023-01-08T05:26:05.655Z,-65.5
2023-01-08T05:27:05.638Z,-65.5
2023-01-08T05:28:05.630Z,-65.4
2023-01-08T05:29:05.634Z,-65.1
2023-01-08T05:30:05.650Z,-65.4
2023-01-08T05:31:05.659Z,-65.4
2023-01-08T05:32:05.632Z,-65.2
2023-01-08T05:33:05.644Z,-65.1
2023-01-08T05:34:05.643Z,-65
2023-01-08T05:35:05.654Z,-65.1
2023-01-08T05:36:05.640Z,-65.4
2023-01-08T05:37:05.639Z,-65.3
2023-01-08T05:38:05.632Z,-65.2
2023-01-08T05:39:05.644Z,-65
2023-01-08T05:40:05.634Z,-65.4
2023-01-08T05:41:05.640Z,-65.6
2023-01-08T05:42:05.637Z,-65
2023-01-08T05:43:05.639Z,-65.2
2023-01-08T05:44:05.781Z,-65.1
2023-01-08T05:45:05.636Z,-65.3
2023-01-08T05:46:05.901Z,-65.5
2023-01-08T05:47:05.634Z,-65.7
2023-01-08T05:48:05.633Z,-65.3
2023-01-08T05:49:05.635Z,-65.3
2023-01-08T05:50:05.648Z,-65.2
2023-01-08T05:51:05.677Z,-65.6
2023-01-08T05:52:05.648Z,-65.5
2023-01-08T05:53:05.641Z,-65.4
2023-01-08T05:54:05.644Z,-65.5
2023-01-08T05:55:05.642Z,-65
2023-01-08T05:56:07.703Z,-65.4
2023-01-08T05:57:05.653Z,-65.9
2023-01-08T05:58:05.639Z,-65.6
2023-01-08T05:59:05.634Z,-65.5
2023-01-08T06:00:05.640Z,-65.6
2023-01-08T06:01:05.644Z,-65.6
2023-01-08T06:02:05.660Z,-65.1
2023-01-08T06:03:05.710Z,-65
2023-01-08T06:04:05.712Z,-65.2
2023-01-08T06:05:05.708Z,-65
2023-01-08T06:06:05.636Z,-65
2023-01-08T06:07:05.643Z,-64.9
2023-01-08T06:08:07.171Z,-65.3
2023-01-08T06:09:05.649Z,-65.7
2023-01-08T06:10:05.635Z,-65.4
2023-01-08T06:11:05.653Z,-65
2023-01-08T06:12:05.639Z,-65.6
2023-01-08T06:13:05.641Z,-65.5
2023-01-08T06:14:05.633Z,-65.6
2023-01-08T06:15:05.812Z,-65.7
2023-01-08T06:16:05.712Z,-65.4
2023-01-08T06:17:05.641Z,-65.4
2023-01-08T06:18:05.645Z,-65.3
2023-01-08T06:19:05.778Z,-65.4
2023-01-08T06:20:05.643Z,-65.6
2023-01-08T06:21:05.650Z,-65.4
2023-01-08T06:22:05.640Z,-65.2
2023-01-08T06:23:05.645Z,-65.1
2023-01-08T06:24:05.651Z,-65.2
2023-01-08T06:25:05.638Z,-65.4
2023-01-08T06:26:05.641Z,-65.4
2023-01-08T06:27:05.642Z,-65.5
2023-01-08T06:28:05.639Z,-65.3
2023-01-08T06:29:05.652Z,-65.1
2023-01-08T06:30:05.648Z,-65.2
2023-01-08T06:31:05.703Z,-65.1
2023-01-08T06:32:05.635Z,-64.7
2023-01-08T06:33:05.662Z,-65.4
2023-01-08T06:34:05.652Z,-65.1
2023-01-08T06:35:05.642Z,-65
2023-01-08T06:36:05.647Z,-64.8
2023-01-08T06:37:05.635Z,-65
2023-01-08T06:38:05.647Z,-65
2023-01-08T06:39:05.643Z,-65
2023-01-08T06:40:05.683Z,-65.1
2023-01-08T06:41:05.656Z,-65.2
2023-01-08T06:42:05.664Z,-65.3
2023-01-08T06:43:05.653Z,-64.9
2023-01-08T06:44:05.647Z,-65
2023-01-08T06:45:05.647Z,-65.1
2023-01-08T06:46:05.864Z,-65
2023-01-08T06:47:05.650Z,-65.3
2023-01-08T06:48:05.647Z,-65.7
2023-01-08T06:49:05.654Z,-65.7
2023-01-08T06:50:05.641Z,-65.2
2023-01-08T06:51:05.651Z,-65.4
2023-01-08T06:52:05.683Z,-65.5
2023-01-08T06:53:05.660Z,-66.1
2023-01-08T06:54:05.649Z,-65.7
2023-01-08T06:55:05.636Z,-65.6
2023-01-08T06:56:05.649Z,-65.7
2023-01-08T06:57:05.647Z,-66.2
2023-01-08T06:58:05.644Z,-66
2023-01-08T06:59:05.655Z,-66.4
2023-01-08T07:00:05.641Z,-66.3
2023-01-08T07:01:05.672Z,-66.5
2023-01-08T07:02:05.796Z,-65.8
2023-01-08T07:03:05.777Z,-66.5
2023-01-08T07:04:05.643Z,-66.5
2023-01-08T07:05:05.649Z,-66.4
2023-01-08T07:06:05.650Z,-66.5
2023-01-08T07:07:05.649Z,-66.5
2023-01-08T07:08:05.674Z,-66.3
2023-01-08T07:09:05.650Z,-66.7
2023-01-08T07:10:05.666Z,-66.6
2023-01-08T07:11:05.681Z,-67.1
2023-01-08T07:12:05.648Z,-66.8
2023-01-08T07:13:05.653Z,-66.5
2023-01-08T07:14:05.658Z,-66.9
2023-01-08T07:15:05.645Z,-66.8
2023-01-08T07:16:05.724Z,-67.3
2023-01-08T07:17:05.772Z,-66.9
2023-01-08T07:18:05.651Z,-67.2
2023-01-08T07:19:05.654Z,-67.4
2023-01-08T07:20:05.664Z,-67.4
2023-01-08T07:21:05.657Z,-68.2
2023-01-08T07:22:05.652Z,-67.8
2023-01-08T07:23:05.699Z,-67.2
2023-01-08T07:24:05.648Z,-67.2
2023-01-08T07:25:05.653Z,-68
2023-01-08T07:26:05.652Z,-67.9
2023-01-08T07:27:05.655Z,-66.9
2023-01-08T07:28:05.730Z,-67.8
2023-01-08T07:29:05.653Z,-67.5
2023-01-08T07:30:05.656Z,-67.6
2023-01-08T07:31:05.702Z,-67.1
2023-01-08T07:32:05.662Z,-67.4
2023-01-08T07:33:05.654Z,-67.2
2023-01-08T07:34:05.653Z,-67.1
2023-01-08T07:35:05.654Z,-67.4
2023-01-08T07:36:05.703Z,-67.3
2023-01-08T07:37:05.652Z,-67.2
2023-01-08T07:38:05.658Z,-67
2023-01-08T07:39:05.663Z,-67.7
2023-01-08T07:40:05.651Z,-68.3
2023-01-08T07:41:05.665Z,-67.7
2023-01-08T07:42:05.654Z,-68.3
2023-01-08T07:43:05.664Z,-67.9
2023-01-08T07:44:05.658Z,-68.4
2023-01-08T07:45:05.676Z,-68.5
2023-01-08T07:46:05.657Z,-67.3
2023-01-08T07:47:05.657Z,-67.9
2023-01-08T07:48:05.773Z,-67.8
2023-01-08T07:49:05.661Z,-67.3
2023-01-08T07:50:05.717Z,-67.7
2023-01-08T07:51:05.666Z,-67.3
2023-01-08T07:52:05.671Z,-67.6
2023-01-08T07:53:05.655Z,-67.6
2023-01-08T07:54:05.654Z,-68.4
2023-01-08T07:55:05.652Z,-67.9
2023-01-08T07:56:05.662Z,-67.5
2023-01-08T07:57:05.657Z,-67.4
2023-01-08T07:58:05.661Z,-68.2
2023-01-08T07:59:05.660Z,-67.8
2023-01-08T08:00:05.670Z,-68.4
2023-01-08T08:01:05.653Z,-69.7
2023-01-08T08:02:05.783Z,-68.3
2023-01-08T08:03:05.765Z,-68.9
2023-01-08T08:04:05.648Z,-67.9
2023-01-08T08:06:05.654Z,-68.1
2023-01-08T08:07:05.649Z,-68.4
2023-01-08T08:08:05.654Z,-67.9
2023-01-08T08:10:05.677Z,-70.2
2023-01-08T08:11:05.659Z,-69.2
2023-01-08T08:12:05.660Z,-69.6
2023-01-08T08:13:05.670Z,-68.8
2023-01-08T08:14:05.703Z,-72.6
2023-01-08T08:15:05.647Z,-69.8
2023-01-08T08:16:05.730Z,-69.2
2023-01-08T08:17:05.661Z,-69.4
2023-01-08T08:18:05.653Z,-71.4
2023-01-08T08:19:05.781Z,-72.6
2023-01-08T08:20:05.682Z,-73.1
2023-01-08T08:21:05.672Z,-72.6
2023-01-08T08:22:05.655Z,-71.1
2023-01-08T08:23:05.665Z,-71.8
2023-01-08T08:24:05.654Z,-71.9
2023-01-08T08:25:05.661Z,-68
2023-01-08T08:26:05.664Z,-68.6
2023-01-08T08:27:05.664Z,-69
2023-01-08T08:28:05.668Z,-68.6
2023-01-08T08:29:05.670Z,-68.7
2023-01-08T08:30:05.654Z,-68.8
2023-01-08T08:31:05.716Z,-68.5
2023-01-08T08:32:05.658Z,-68.5
2023-01-08T08:33:05.660Z,-68.5
2023-01-08T08:34:05.668Z,-68.9
2023-01-08T08:35:05.654Z,-69
2023-01-08T08:36:05.676Z,-69.5
2023-01-08T08:37:05.653Z,-68.4
2023-01-08T08:38:05.663Z,-70.5
2023-01-08T08:39:05.663Z,-69
2023-01-08T08:40:05.679Z,-72
2023-01-08T08:41:05.656Z,-72.9
2023-01-08T08:42:05.667Z,-72.2
2023-01-08T08:43:05.667Z,-68.9
2023-01-08T08:44:05.662Z,-72.8
2023-01-08T08:45:05.661Z,-71.6
2023-01-08T08:46:05.662Z,-73.4
2023-01-08T08:47:05.680Z,-73
2023-01-08T08:48:05.664Z,-72.8
2023-01-08T08:49:05.655Z,-72.9
2023-01-08T08:50:05.777Z,-73.3
2023-01-08T08:51:05.682Z,-73.5
2023-01-08T08:52:07.167Z,-73.1
2023-01-08T08:53:05.663Z,-72.1
2023-01-08T08:54:05.683Z,-73.7
2023-01-08T08:55:05.657Z,-72.5
2023-01-08T08:56:05.669Z,-73.3
2023-01-08T08:57:05.666Z,-72.6
2023-01-08T08:58:05.677Z,-72.6
2023-01-08T08:59:05.670Z,-72.4
2023-01-08T09:00:05.656Z,-73
2023-01-08T09:01:05.679Z,-72.7
2023-01-08T09:02:05.851Z,-72.4
2023-01-08T09:03:05.793Z,-72
2023-01-08T09:04:05.663Z,-72.2
2023-01-08T09:05:05.669Z,-72.2
2023-01-08T09:06:05.661Z,-72.4
2023-01-08T09:07:05.658Z,-72.7
2023-01-08T09:08:05.659Z,-72.5
2023-01-08T09:09:05.658Z,-71.4
2023-01-08T09:10:05.658Z,-72.3
2023-01-08T09:11:05.659Z,-72.1
2023-01-08T09:12:05.684Z,-71.3
2023-01-08T09:13:05.665Z,-72
2023-01-08T09:14:05.665Z,-72.2
2023-01-08T09:15:05.680Z,-72.5
2023-01-08T09:16:05.725Z,-72
2023-01-08T09:17:05.671Z,-74.1
2023-01-08T09:18:05.668Z,-72.7
2023-01-08T09:19:05.662Z,-73.5
2023-01-08T09:20:05.661Z,-73.4
2023-01-08T09:22:05.661Z,-73.1
2023-01-08T09:23:05.659Z,-73
2023-01-08T09:24:05.664Z,-73.8
2023-01-08T09:25:05.662Z,-73.9
2023-01-08T09:26:05.669Z,-74.5
2023-01-08T09:27:05.667Z,-74.2
2023-01-08T09:28:05.658Z,-75.3
2023-01-08T09:29:05.668Z,-77.1
2023-01-08T09:30:05.671Z,-74.9
2023-01-08T09:31:05.739Z,-73.4
2023-01-08T09:32:05.668Z,-74.6
2023-01-08T09:33:05.665Z,-74.1
2023-01-08T09:34:05.678Z,-72.8
2023-01-08T09:35:05.682Z,-74.8
2023-01-08T09:36:05.656Z,-73.2
2023-01-08T09:37:05.663Z,-72.3
2023-01-08T09:38:05.664Z,-73.3
2023-01-08T09:39:05.674Z,-73.7
2023-01-08T09:40:05.694Z,-73.3
2023-01-08T09:41:06.066Z,-73
2023-01-08T09:43:05.662Z,-73.1
2023-01-08T09:44:05.711Z,-75.5
2023-01-08T09:46:05.707Z,-74
2023-01-08T09:47:05.733Z,-74
2023-01-08T09:48:05.663Z,-73.9
2023-01-08T09:49:05.669Z,-73.6
2023-01-08T09:50:05.660Z,-86
2023-01-08T09:51:05.674Z,-81.3
2023-01-08T09:53:05.664Z,-83.4
2023-01-08T09:54:05.667Z,-88.9
2023-01-08T09:55:05.668Z,-91.5
2023-01-08T09:56:10.339Z,-144.3
2023-01-08T09:57:05.667Z,-144.3
2023-01-08T09:58:05.671Z,-144.3
2023-01-08T09:59:05.709Z,-144.3
2023-01-08T10:00:05.668Z,-144.3
2023-01-08T10:01:05.734Z,-144.3
2023-01-08T10:02:05.729Z,-144.3
2023-01-08T10:03:05.672Z,-144.3
2023-01-08T10:04:05.719Z,-144.3
2023-01-08T10:05:05.670Z,-144.3
2023-01-08T10:06:05.666Z,-144.3
2023-01-08T10:07:05.817Z,-144.3
2023-01-08T10:08:05.672Z,-144.3
2023-01-08T10:09:07.655Z,-144.3
2023-01-08T10:10:05.681Z,-144.3
2023-01-08T10:11:05.667Z,-144.3
2023-01-08T10:12:05.668Z,-144.3
2023-01-08T10:13:05.676Z,-144.3
2023-01-08T10:14:05.669Z,-144.3
2023-01-08T10:15:05.673Z,-144.3
2023-01-08T10:16:05.705Z,-144.3
2023-01-08T10:17:05.820Z,-144.3
2023-01-08T10:18:05.682Z,-144.3
2023-01-08T10:19:05.683Z,-144.3
2023-01-08T10:20:05.675Z,-144.3
2023-01-08T10:21:05.669Z,-144.3
2023-01-08T10:22:05.672Z,-144.3
2023-01-08T10:23:05.675Z,-144.3
2023-01-08T10:24:05.678Z,-144.3
2023-01-08T10:25:05.684Z,-144.3
2023-01-08T10:26:05.673Z,-144.3
2023-01-08T10:27:05.693Z,-144.3
2023-01-08T10:28:05.669Z,-144.3
2023-01-08T10:29:05.666Z,-144.3
2023-01-08T10:30:05.676Z,-144.3
2023-01-08T10:31:05.766Z,-144.3
2023-01-08T10:32:05.674Z,-144.3
2023-01-08T10:33:05.683Z,-144.3
2023-01-08T10:34:05.674Z,-144.3
2023-01-08T10:35:05.673Z,-144.3
2023-01-08T10:36:05.680Z,-144.3
2023-01-08T10:37:05.675Z,-144.3
2023-01-08T10:38:05.704Z,-144.3
2023-01-08T10:39:05.681Z,-144.3
2023-01-08T10:40:05.680Z,-144.3
2023-01-08T10:41:05.683Z,-144.3
2023-01-08T10:43:05.692Z,-144.3
2023-01-08T10:44:05.675Z,-144.3
2023-01-08T10:45:07.838Z,-144.3
2023-01-08T10:46:05.761Z,-144.3
2023-01-08T10:47:05.677Z,-144.3
2023-01-08T10:48:05.682Z,-144.3
2023-01-08T10:49:05.676Z,-144.3
2023-01-08T10:50:05.669Z,-144.3
2023-01-08T10:51:06.981Z,-144.3
2023-01-08T10:53:05.715Z,-144.3
2023-01-08T10:54:05.671Z,-144.3
2023-01-08T10:55:05.685Z,-144.3
2023-01-08T10:56:05.694Z,-144.3
2023-01-08T10:57:05.837Z,-144.3
2023-01-08T10:58:05.694Z,-144.3
2023-01-08T10:59:05.683Z,-144.3
2023-01-08T11:00:05.686Z,-144.3
2023-01-08T11:01:05.742Z,-144.3
2023-01-08T11:02:05.787Z,-144.3
2023-01-08T11:03:05.678Z,-144.3
2023-01-08T11:04:05.689Z,-144.3
2023-01-08T11:05:05.706Z,-144.3
2023-01-08T11:06:05.685Z,-64.7
2023-01-08T11:07:05.682Z,-64.2
2023-01-08T11:08:05.681Z,-63.3
2023-01-08T11:09:05.728Z,-63.1
2023-01-08T11:10:05.681Z,-63
2023-01-08T11:11:05.676Z,-63
2023-01-08T11:12:05.686Z,-62.8
2023-01-08T11:13:05.685Z,-63.7
2023-01-08T11:14:05.683Z,-63.5
2023-01-08T11:15:05.695Z,-63.3
2023-01-08T11:16:05.748Z,-63.1
2023-01-08T11:17:05.694Z,-64
2023-01-08T11:18:05.676Z,-63.5
2023-01-08T11:19:05.690Z,-63.1
2023-01-08T11:20:05.682Z,-63.8
2023-01-08T11:21:05.681Z,-63.8
2023-01-08T11:22:05.732Z,-64.3
2023-01-08T11:23:05.687Z,-65.1
2023-01-08T11:24:05.678Z,-64.7
2023-01-08T11:25:05.825Z,-64.4
2023-01-08T11:26:05.694Z,-65.3
2023-01-08T11:27:05.685Z,-65
2023-01-08T11:28:05.676Z,-65.1
2023-01-08T11:29:05.680Z,-65
2023-01-08T11:30:05.708Z,-65.3
2023-01-08T11:31:05.683Z,-65.3
2023-01-08T11:32:05.681Z,-66.2
2023-01-08T11:33:05.689Z,-66.1
2023-01-08T11:34:05.675Z,-65.7
2023-01-08T11:35:05.683Z,-66.2
2023-01-08T11:37:05.711Z,-65.6
2023-01-08T11:38:05.697Z,-65.5
2023-01-08T11:39:05.688Z,-66.1
2023-01-08T11:40:05.711Z,-66.8
2023-01-08T11:41:05.691Z,-67.1
2023-01-08T11:42:05.686Z,-66.9
2023-01-08T11:43:05.682Z,-67
2023-01-08T11:44:05.684Z,-66.8
2023-01-08T11:45:05.691Z,-66.9
2023-01-08T11:46:05.712Z,-66.9
2023-01-08T11:47:05.686Z,-67
2023-01-08T11:48:05.685Z,-66.8
2023-01-08T11:49:05.680Z,-67.6
2023-01-08T11:50:05.687Z,-66.7
2023-01-08T11:51:05.685Z,-66.7
2023-01-08T11:52:05.689Z,-67.5
2023-01-08T11:53:05.684Z,-67.2
2023-01-08T11:54:05.711Z,-66.8
2023-01-08T11:55:05.685Z,-66.6
2023-01-08T11:56:05.690Z,-65.7
2023-01-08T11:57:05.684Z,-67.4
2023-01-08T11:58:05.681Z,-66.8
2023-01-08T11:59:05.751Z,-67.9
2023-01-08T12:00:05.695Z,-67.8
2023-01-08T12:01:05.683Z,-67.9
2023-01-08T12:02:05.738Z,-68.1
2023-01-08T12:03:05.720Z,-68
2023-01-08T12:04:05.711Z,-68.3
2023-01-08T12:05:05.688Z,-68.8
2023-01-08T12:06:05.687Z,-68.2
2023-01-08T12:07:05.689Z,-68.1
2023-01-08T12:08:06.673Z,-67.7
2023-01-08T12:09:05.685Z,-68
2023-01-08T12:10:05.709Z,-67.9
2023-01-08T12:11:05.721Z,-70.1
2023-01-08T12:12:05.682Z,-69.9
2023-01-08T12:13:05.724Z,-70.6
2023-01-08T12:14:05.693Z,-71.5
2023-01-08T12:15:05.700Z,-72
2023-01-08T12:16:05.721Z,-71.8
2023-01-08T12:17:05.688Z,-71.8
2023-01-08T12:18:05.689Z,-71.3
2023-01-08T12:19:05.697Z,-71.9
2023-01-08T12:20:05.697Z,-72.5
2023-01-08T12:21:05.693Z,-72.1
2023-01-08T12:22:05.715Z,-72.6
2023-01-08T12:23:05.693Z,-72.7
2023-01-08T12:24:05.696Z,-72.2
2023-01-08T12:25:05.692Z,-72.9
2023-01-08T12:26:05.694Z,-73.6
2023-01-08T12:27:05.687Z,-73.3
2023-01-08T12:28:05.715Z,-74.4
2023-01-08T12:29:05.692Z,-74.7
2023-01-08T12:30:05.732Z,-74.3
2023-01-08T12:31:05.688Z,-72.9
2023-01-08T12:32:06.753Z,-73.3
2023-01-08T12:33:05.713Z,-73.5
2023-01-08T12:34:05.695Z,-73
2023-01-08T12:35:05.772Z,-73
2023-01-08T12:36:05.688Z,-73.4
2023-01-08T12:37:05.702Z,-73.4
2023-01-08T12:38:05.693Z,-73.4
2023-01-08T12:39:05.690Z,-72.8
2023-01-08T12:40:05.702Z,-72.6
2023-01-08T12:41:05.696Z,-71.7
2023-01-08T12:42:05.720Z,-71.9
2023-01-08T12:43:05.927Z,-71.8
2023-01-08T12:44:05.694Z,-72
2023-01-08T12:45:05.758Z,-71.8
2023-01-08T12:46:05.752Z,-71.8
2023-01-08T12:47:05.703Z,-73.3
2023-01-08T12:48:05.685Z,-73.1
2023-01-08T12:49:05.707Z,-73
2023-01-08T12:50:05.747Z,-73.2
2023-01-08T12:51:05.697Z,-71.1
2023-01-08T12:52:05.698Z,-72.3
2023-01-08T12:53:05.699Z,-71.9
2023-01-08T12:54:05.699Z,-73.2
2023-01-08T12:55:05.719Z,-72.4
2023-01-08T12:56:05.709Z,-72.6
2023-01-08T12:57:05.692Z,-72.2
2023-01-08T12:58:05.699Z,-72
2023-01-08T12:59:05.693Z,-73.6
2023-01-08T13:00:05.707Z,-72.5
2023-01-08T13:01:05.758Z,-71.5
2023-01-08T13:02:05.827Z,-72.7
2023-01-08T13:03:05.780Z,-72.1
2023-01-08T13:04:05.705Z,-73
2023-01-08T13:05:05.696Z,-73
2023-01-08T13:06:05.695Z,-72.5
2023-01-08T13:07:05.696Z,-73.2
2023-01-08T13:08:05.766Z,-71.5
2023-01-08T13:09:05.707Z,-72.3
2023-01-08T13:10:05.699Z,-71.4